Reno, NV

4:59 PM PDT on September 19, 2014 (GMT -0700)
Rolling Hills - Galena | Change Station
CLOSE
Current Station
Personal Weather Station
Location: Reno, NV
Elevation: 5112 ft
Nearby Weather Stations

Elev 5112 ft 39.39 °N, 119.79 °W | Updated 8 seconds ago

Clear
Clear
77.8 °F
Feels Like 78 °F
N
2.4
Wind Variable Wind from NNW
Gusts 4.7 mph

Today
High -- | Low -- °F
--% Chance of Precip.
Yesterday
High -- | Low -- °F
Precip. -- in
6:43 AM 7:00 PM
Waning Crescent, 16% visible
Pressure 29.85 in
Visibility 10.0 miles
Clouds Few 10000 ft
Heat Index 78 °F
Dew Point 44 °F
Humidity 30%
Rainfall 0.01 in
Snow Depth 0 in , 0 in , 0 in
UV 2 out of 12
Pollen 6.60 out of 12
Air Quality Not available.
Flu Activity Not available.
METAR KRNO 192355Z 07006KT 10SM FEW100 28/04 A3000 RMK AO2 SLP106 HZ ALQDS FU ALF ALQDS T02830039 10289 20211 56014

More Conditions Fewer Conditions

Pressure 29.85 in
Visibility 10.0 miles
Clouds Few 10000 ft
Heat Index 78 °F
Dew Point 44 °F
Humidity 30%
Rainfall 0.01 in
Snow Depth 0 in , 0 in , 0 in
UV 2 out of 12
Pollen 6.60 out of 12
Air Quality Not available.
Flu Activity Not available.
METAR KRNO 192355Z 07006KT 10SM FEW100 28/04 A3000 RMK AO2 SLP106 HZ ALQDS FU ALF ALQDS T02830039 10289 20211 56014

More Conditions Fewer Conditions

10-Day Weather Forecast

Almanac

Astronomy

Sep. 19, 2014 Rise Set
Actual Time 6:43 AM PDT 7:00 PM PDT
Civil Twilight 6:17 AM PDT 7:27 PM PDT
Nautical Twilight 5:45 AM PDT 7:59 PM PDT
Astronomical Twilight 5:13 AM PDT 8:31 PM PDT
Moon 2:34 AM PDT 4:31 PM PDT
Length of Visible Light 13h 10m
Length of Day
12h 16m
Tomorrow will be 2m 34s shorter.
Waning Crescent, 16% of the Moon is Illuminated
Today
Waning Crescent
Sep 24
New
Oct 1
First Quarter
Oct 8
Full
Oct 15
Last Quarter

Today's Extremes

State Highs State Lows

Community

WunderPhotos

Upload Photos

1,754,730 photos uploaded!

Nearby

Snow Depth

Station Depth Elevation
Sheldon 0 in 5860 ft
Taylor Canyon 0 in 6200 ft
Lamance Creek 0 in 6000 ft
Jacks Peak 2 in 8420 ft
Draw Creek 0 in 7200 ft

Earthquake Activity

City Distance Mag. Time & Date
Gabbs, Nevada 91 miles 3.3 4:37 AM PDT
2014-09-19
Livermore, California 158 miles 2.6 3:37 AM PDT
2014-09-19
Minimum magnitude displayed is 2.5.

Coastal Water Temperatures

Place Temperature
No Stations Reporting

Nearby Weather Stations